Time;durP1;ratioP1;P1;durP2;ratioP2;P2;SDS_P1;SDS_P2;PMS_P1;PMS_P2;Temp;Humidity;BMP_temperature;BMP_pressure;BME280_temperature;BME280_humidity;BME280_pressure;Samples;Min_cycle;Max_cycle;Signal;HPM_P1;HPM_P2
2022/12/03 03:03:09;;;;;;;28.97;25.83;;;2.70;99.90;;;;;;4848530;29;20232;-80
2022/12/03 03:05:38;;;;;;;29.97;26.87;;;2.80;99.90;;;;;;4842400;29;20221;-80
2022/12/03 03:08:07;;;;;;;28.77;25.77;;;2.80;99.90;;;;;;4848931;29;20291;-80
2022/12/03 03:10:37;;;;;;;27.63;24.93;;;2.70;99.90;;;;;;4853309;29;20216;-80
2022/12/03 03:13:08;;;;;;;28.77;25.80;;;2.70;99.90;;;;;;4849781;29;20198;-80
2022/12/03 03:15:36;;;;;;;28.80;25.90;;;2.80;99.90;;;;;;4851958;29;20458;-80
2022/12/03 03:18:03;;;;;;;27.70;25.03;;;2.80;99.90;;;;;;4849860;29;20198;-79
2022/12/03 03:20:31;;;;;;;27.90;25.00;;;2.70;99.90;;;;;;4849634;29;20236;-80
2022/12/03 03:23:06;;;;;;;28.27;25.17;;;2.70;99.90;;;;;;4850206;29;20209;-80
2022/12/03 03:25:33;;;;;;;28.83;25.90;;;2.70;99.90;;;;;;4843641;29;20211;-80
2022/12/03 03:28:01;;;;;;;28.67;25.70;;;2.70;99.90;;;;;;4849742;29;20210;-80
2022/12/03 03:30:27;;;;;;;30.03;27.03;;;2.70;99.90;;;;;;4841132;29;20213;-80
2022/12/03 03:32:55;;;;;;;28.97;26.07;;;2.60;99.90;;;;;;4849553;29;20210;-80
2022/12/03 03:35:23;;;;;;;29.10;25.93;;;2.70;99.90;;;;;;4850995;29;20202;-80
2022/12/03 03:37:52;;;;;;;30.20;26.93;;;2.60;99.90;;;;;;4849837;29;20577;-80
2022/12/03 03:40:20;;;;;;;30.17;26.87;;;2.60;99.90;;;;;;4849650;29;20210;-80
2022/12/03 03:42:47;;;;;;;29.43;26.23;;;2.70;99.90;;;;;;4850803;29;20215;-80
2022/12/03 03:45:15;;;;;;;29.87;25.97;;;2.70;99.90;;;;;;4853756;29;20210;-79
2022/12/03 03:47:43;;;;;;;33.67;28.13;;;2.70;99.90;;;;;;4848233;29;20234;-80
2022/12/03 03:50:12;;;;;;;30.80;26.27;;;2.70;99.90;;;;;;4849869;29;20694;-81
2022/12/03 03:52:40;;;;;;;28.70;25.63;;;2.80;99.90;;;;;;4845401;29;20222;-80
2022/12/03 03:55:10;;;;;;;30.23;26.93;;;2.80;99.90;;;;;;4841459;29;20612;-80
2022/12/03 03:57:38;;;;;;;29.27;26.20;;;2.80;99.90;;;;;;4850680;29;20274;-80
2022/12/03 04:00:08;;;;;;;28.93;25.93;;;2.80;99.90;;;;;;4853432;29;20206;-80
2022/12/03 04:02:37;;;;;;;28.03;25.23;;;2.90;99.90;;;;;;4850808;29;20256;-79
2022/12/03 04:05:04;;;;;;;29.90;26.20;;;2.90;99.90;;;;;;4852849;29;20206;-81
2022/12/03 04:07:31;;;;;;;31.77;26.77;;;2.90;99.90;;;;;;4849778;29;20707;-81
2022/12/03 04:09:58;;;;;;;28.70;25.80;;;2.90;99.90;;;;;;4849294;29;20261;-81
2022/12/03 04:15:11;;;;;;;29.70;26.67;;;3.00;99.90;;;;;;4843261;29;20204;-79
2022/12/03 04:17:38;;;;;;;29.67;26.47;;;3.00;99.90;;;;;;4849149;29;20229;-81
2022/12/03 04:20:06;;;;;;;29.10;26.20;;;3.10;99.90;;;;;;4836546;29;20206;-81
2022/12/03 04:22:40;;;;;;;28.97;26.00;;;3.10;99.90;;;;;;4842607;29;20629;-81
2022/12/03 04:30:54;;;;;;;28.33;25.53;;;3.00;99.90;;;;;;4789404;29;20220;-79
2022/12/03 04:36:06;;;;;;;30.73;27.40;;;3.10;99.90;;;;;;4841263;29;20215;-80
2022/12/03 04:38:32;;;;;;;29.93;26.97;;;3.10;99.90;;;;;;4842224;29;20187;-81
2022/12/03 04:41:03;;;;;;;31.83;28.33;;;3.10;99.90;;;;;;4840952;29;20214;-81
2022/12/03 04:43:33;;;;;;;31.00;27.90;;;3.20;99.90;;;;;;4857374;29;20230;-81
2022/12/03 04:46:01;;;;;;;28.77;25.97;;;3.20;99.90;;;;;;4837958;29;20207;-81
2022/12/03 04:48:29;;;;;;;30.17;27.10;;;3.10;99.90;;;;;;4841440;29;20214;-80
2022/12/03 04:50:56;;;;;;;28.33;25.50;;;3.10;99.90;;;;;;4840358;29;20223;-81
2022/12/03 04:53:23;;;;;;;28.53;25.73;;;3.10;99.90;;;;;;4837778;29;20198;-84
2022/12/03 04:55:50;;;;;;;29.27;26.27;;;3.10;99.90;;;;;;4851505;29;20207;-81
2022/12/03 04:58:17;;;;;;;30.67;27.43;;;3.20;99.90;;;;;;4849754;29;20210;-81
2022/12/03 05:00:45;;;;;;;30.20;27.20;;;3.10;99.90;;;;;;4852808;29;20236;-80
2022/12/03 05:03:12;;;;;;;30.37;26.83;;;3.20;99.90;;;;;;4844756;29;20209;-81
2022/12/03 05:05:39;;;;;;;29.53;26.37;;;3.20;99.90;;;;;;4848265;29;20214;-82
2022/12/03 05:08:07;;;;;;;27.87;24.97;;;3.10;99.90;;;;;;4850331;29;20261;-81
2022/12/03 05:10:33;;;;;;;30.90;27.70;;;3.20;99.90;;;;;;4847956;29;20206;-82
2022/12/03 05:13:00;;;;;;;30.87;27.67;;;3.20;99.90;;;;;;4849480;29;20209;-80
2022/12/03 05:15:27;;;;;;;29.33;26.27;;;3.20;99.90;;;;;;4836195;29;20210;-81
2022/12/03 05:17:55;;;;;;;29.83;26.83;;;3.30;99.90;;;;;;4850964;29;20205;-82
2022/12/03 05:23:07;;;;;;;29.10;26.20;;;3.20;99.90;;;;;;4847391;29;20214;-81
2022/12/03 05:25:33;;;;;;;28.73;25.80;;;3.20;99.90;;;;;;4854996;29;20205;-80
2022/12/03 05:28:00;;;;;;;30.90;27.67;;;3.20;99.90;;;;;;4851934;29;20227;-81
2022/12/03 05:30:27;;;;;;;30.33;27.30;;;3.20;99.90;;;;;;4852788;29;20678;-81
2022/12/03 05:32:55;;;;;;;31.40;28.00;;;3.20;99.90;;;;;;4851497;29;20677;-80
2022/12/03 05:35:22;;;;;;;30.30;27.27;;;3.20;99.90;;;;;;4855196;29;20210;-81
2022/12/03 05:37:49;;;;;;;30.23;27.10;;;3.20;99.90;;;;;;4853600;29;20858;-81
2022/12/03 05:40:16;;;;;;;29.97;26.87;;;3.20;99.90;;;;;;4853042;29;20672;-80
2022/12/03 05:42:52;;;;;;;33.07;29.00;;;3.20;99.90;;;;;;4853281;29;20218;-81
2022/12/03 05:45:19;;;;;;;30.53;27.23;;;3.30;99.90;;;;;;4854022;29;20202;-81
2022/12/03 05:47:46;;;;;;;31.23;27.87;;;3.30;99.90;;;;;;4854564;29;20226;-81
2022/12/03 05:50:15;;;;;;;28.73;25.93;;;3.30;99.90;;;;;;4852696;29;20213;-80
2022/12/03 05:52:42;;;;;;;30.13;27.03;;;3.30;99.90;;;;;;4853984;29;20226;-81
2022/12/03 05:55:09;;;;;;;30.17;26.73;;;3.30;99.90;;;;;;4851468;29;20218;-81
2022/12/03 05:57:36;;;;;;;29.80;26.83;;;3.20;99.90;;;;;;4855857;29;20198;-81
2022/12/03 06:00:05;;;;;;;28.40;25.63;;;3.20;99.90;;;;;;4850785;29;20233;-80
2022/12/03 06:02:39;;;;;;;27.67;24.97;;;3.20;99.90;;;;;;4854886;29;20246;-81
2022/12/03 06:05:06;;;;;;;27.97;25.00;;;3.30;99.90;;;;;;4851166;29;20217;-80
2022/12/03 06:07:35;;;;;;;29.57;26.47;;;3.30;99.90;;;;;;4853983;29;20198;-81
2022/12/03 06:10:01;;;;;;;29.57;26.47;;;3.30;99.90;;;;;;4851428;29;20201;-80
2022/12/03 06:12:28;;;;;;;27.60;24.83;;;3.20;99.90;;;;;;4848108;29;20226;-79
2022/12/03 06:14:55;;;;;;;28.63;25.37;;;3.20;99.90;;;;;;4856999;29;20253;-79
2022/12/03 06:17:22;;;;;;;28.60;25.60;;;3.30;99.90;;;;;;4851006;29;20710;-81
2022/12/03 06:19:49;;;;;;;29.87;26.77;;;3.20;99.90;;;;;;4849475;29;20198;-81
2022/12/03 06:22:16;;;;;;;29.80;26.80;;;3.20;99.90;;;;;;4844783;29;20226;-78
2022/12/03 06:24:44;;;;;;;29.53;26.43;;;3.30;99.90;;;;;;4847754;29;20308;-77
2022/12/03 06:27:11;;;;;;;29.27;26.27;;;3.20;99.90;;;;;;4852408;29;20214;-78
2022/12/03 06:29:39;;;;;;;28.50;25.50;;;3.30;99.90;;;;;;4849445;29;20780;-78
2022/12/03 06:32:06;;;;;;;29.13;26.20;;;3.30;99.90;;;;;;4857219;29;20234;-77
2022/12/03 06:34:33;;;;;;;28.70;25.70;;;3.30;99.90;;;;;;4849380;29;20211;-80
2022/12/03 06:37:00;;;;;;;28.93;26.00;;;3.40;99.90;;;;;;4852724;29;20202;-80
2022/12/03 06:39:27;;;;;;;28.70;25.80;;;3.40;99.90;;;;;;4851584;29;20195;-80
2022/12/03 06:41:55;;;;;;;30.47;27.27;;;3.40;99.90;;;;;;4857304;29;20729;-79
2022/12/03 06:44:22;;;;;;;29.60;26.47;;;3.40;99.90;;;;;;4861724;29;20199;-79
2022/12/03 06:46:49;;;;;;;30.47;27.17;;;3.40;99.90;;;;;;4860320;29;20202;-80
2022/12/03 06:49:15;;;;;;;31.77;28.40;;;3.40;99.90;;;;;;4850191;29;20222;-79
2022/12/03 06:51:42;;;;;;;27.63;24.97;;;3.40;99.90;;;;;;4852590;29;20210;-78
2022/12/03 06:54:09;;;;;;;30.47;27.30;;;3.50;99.90;;;;;;4853539;29;20199;-80
2022/12/03 06:56:36;;;;;;;29.87;26.70;;;3.50;99.90;;;;;;4851198;29;20306;-80
2022/12/03 06:59:04;;;;;;;32.00;28.57;;;3.50;99.90;;;;;;4852573;29;20205;-80
2022/12/03 07:01:31;;;;;;;30.90;27.67;;;3.50;99.90;;;;;;4854772;29;20238;-80
2022/12/03 07:03:58;;;;;;;31.03;27.73;;;3.40;99.90;;;;;;4858112;29;20544;-80
2022/12/03 07:06:25;;;;;;;29.27;26.33;;;3.40;99.90;;;;;;4854694;29;20201;-81
2022/12/03 07:08:52;;;;;;;29.70;26.50;;;3.40;99.90;;;;;;4851755;29;20637;-80
2022/12/03 07:11:31;;;;;;;29.57;26.40;;;3.40;99.90;;;;;;4853880;29;20226;-80
2022/12/03 07:13:58;;;;;;;32.87;27.23;;;3.40;99.90;;;;;;4852447;29;20205;-79
2022/12/03 07:16:27;;;;;;;33.47;27.97;;;3.50;99.90;;;;;;4849830;29;20202;-80
2022/12/03 07:18:54;;;;;;;31.13;27.60;;;3.50;99.90;;;;;;4848037;29;20202;-80
2022/12/03 07:21:22;;;;;;;30.63;27.43;;;3.50;99.90;;;;;;4850593;29;21824;-80
2022/12/03 07:23:49;;;;;;;30.27;27.07;;;3.50;99.90;;;;;;4842318;29;20629;-78
2022/12/03 07:26:16;;;;;;;30.97;27.10;;;3.40;99.90;;;;;;4848891;29;20218;-79
2022/12/03 07:28:42;;;;;;;29.53;26.60;;;3.40;99.90;;;;;;4849419;29;20222;-81
2022/12/03 07:31:09;;;;;;;31.33;28.13;;;3.40;99.90;;;;;;4849545;29;20237;-81
2022/12/03 07:33:37;;;;;;;30.33;27.17;;;3.40;99.90;;;;;;4851338;29;20190;-80
2022/12/03 07:36:04;;;;;;;31.47;28.23;;;3.40;99.90;;;;;;4850590;29;20692;-81
2022/12/03 07:38:31;;;;;;;27.83;25.07;;;3.50;99.90;;;;;;4851376;29;20206;-81
2022/12/03 07:40:58;;;;;;;28.67;25.80;;;3.40;99.90;;;;;;4849892;29;20373;-81
2022/12/03 07:43:25;;;;;;;29.90;26.80;;;3.50;99.90;;;;;;4845372;29;20206;-81
2022/12/03 07:45:52;;;;;;;30.97;27.67;;;3.50;99.90;;;;;;4845891;29;20210;-81
2022/12/03 07:48:19;;;;;;;29.27;26.37;;;3.50;99.90;;;;;;4850197;29;20703;-81
2022/12/03 07:50:47;;;;;;;30.50;27.27;;;3.50;99.90;;;;;;4848900;29;20287;-81
2022/12/03 07:53:14;;;;;;;30.83;27.67;;;3.50;99.90;;;;;;4850348;29;20209;-81
2022/12/03 07:55:40;;;;;;;31.10;27.83;;;3.50;99.90;;;;;;4850326;29;20198;-81
2022/12/03 07:58:07;;;;;;;30.93;27.67;;;3.60;99.90;;;;;;4849293;29;20213;-80
2022/12/03 08:00:34;;;;;;;30.60;27.50;;;3.60;99.90;;;;;;4850836;29;20289;-81
2022/12/03 08:03:01;;;;;;;29.93;26.87;;;3.70;99.90;;;;;;4852077;29;20202;-81
2022/12/03 08:05:28;;;;;;;29.57;26.47;;;3.70;99.90;;;;;;4840032;29;20213;-81
2022/12/03 08:07:56;;;;;;;29.50;26.70;;;3.70;99.90;;;;;;4846449;29;20584;-81
2022/12/03 08:10:25;;;;;;;30.07;26.87;;;3.80;99.90;;;;;;4854446;29;20217;-81
2022/12/03 08:12:52;;;;;;;28.90;25.90;;;3.80;99.90;;;;;;4847486;29;20259;-80
2022/12/03 08:15:22;;;;;;;30.23;27.30;;;3.80;99.90;;;;;;4841047;29;20218;-79
2022/12/03 08:17:55;;;;;;;29.37;26.37;;;3.80;99.90;;;;;;4849844;29;20222;-80
2022/12/03 08:20:26;;;;;;;29.70;26.60;;;3.80;99.90;;;;;;4852733;29;20221;-81
2022/12/03 08:22:55;;;;;;;29.87;26.70;;;3.80;99.90;;;;;;4861878;29;20214;-81
2022/12/03 08:25:24;;;;;;;29.33;26.23;;;3.70;99.90;;;;;;4854311;29;20207;-81
2022/12/03 08:27:53;;;;;;;29.53;26.40;;;3.70;99.90;;;;;;4855810;29;20214;-82
2022/12/03 08:30:20;;;;;;;29.50;26.50;;;3.70;99.90;;;;;;4850408;29;20295;-81
2022/12/03 08:32:48;;;;;;;30.47;27.23;;;3.80;99.90;;;;;;4850294;29;20245;-81
2022/12/03 08:35:21;;;;;;;29.57;26.40;;;3.70;99.90;;;;;;4851484;29;20203;-81
2022/12/03 08:37:55;;;;;;;29.17;26.20;;;3.70;99.90;;;;;;4835678;29;20214;-81
2022/12/03 08:40:28;;;;;;;28.63;25.67;;;3.80;99.90;;;;;;4843660;29;20210;-81
2022/12/03 08:42:55;;;;;;;29.93;26.83;;;3.90;99.90;;;;;;4853218;29;20195;-82
2022/12/03 08:45:39;;;;;;;32.13;28.30;;;3.80;99.90;;;;;;4850937;29;20214;-82
2022/12/03 08:48:31;;;;;;;32.60;27.10;;;3.70;99.90;;;;;;4852292;29;20202;-77
2022/12/03 08:51:01;;;;;;;32.63;27.77;;;3.70;99.90;;;;;;4852975;29;20236;-83
2022/12/03 08:53:31;;;;;;;30.00;26.67;;;3.80;99.90;;;;;;4851925;29;20247;-82
2022/12/03 08:56:03;;;;;;;29.70;25.97;;;3.80;99.90;;;;;;4857550;29;20242;-82
2022/12/03 08:58:39;;;;;;;29.23;26.20;;;3.90;99.90;;;;;;4843520;29;20212;-78
2022/12/03 09:01:24;;;;;;;28.40;25.40;;;3.90;99.90;;;;;;4851368;29;20244;-82
2022/12/03 09:03:53;;;;;;;28.23;25.03;;;3.90;99.90;;;;;;4849191;29;20202;-82
2022/12/03 09:06:20;;;;;;;27.03;24.23;;;3.90;99.90;;;;;;4851162;29;20592;-82
2022/12/03 09:08:48;;;;;;;26.60;23.90;;;3.80;99.90;;;;;;4854965;29;20224;-82
2022/12/03 09:11:16;;;;;;;25.43;22.63;;;3.90;99.90;;;;;;4850454;29;20225;-83
2022/12/03 09:13:43;;;;;;;24.47;22.00;;;3.90;99.90;;;;;;4849034;29;20206;-83
2022/12/03 09:16:10;;;;;;;23.97;21.57;;;4.00;99.90;;;;;;4855726;29;20697;-83
2022/12/03 09:18:37;;;;;;;23.93;21.73;;;4.00;99.90;;;;;;4848989;29;20202;-77
2022/12/03 09:21:04;;;;;;;23.80;21.60;;;4.00;99.90;;;;;;4830338;29;20246;-78
2022/12/03 09:23:31;;;;;;;22.83;20.67;;;4.10;99.90;;;;;;4828577;29;20207;-86
2022/12/03 09:25:59;;;;;;;24.97;22.77;;;4.20;99.90;;;;;;4828924;29;20446;-82
2022/12/03 09:28:49;;;;;;;22.67;20.47;;;4.20;99.90;;;;;;4829301;29;20223;-83
2022/12/03 09:31:20;;;;;;;22.30;20.17;;;4.20;99.90;;;;;;4851106;29;20231;-82
2022/12/03 09:33:53;;;;;;;21.40;19.30;;;4.20;99.90;;;;;;4839878;29;20245;-80
2022/12/03 09:36:20;;;;;;;23.10;20.80;;;4.20;99.90;;;;;;4825552;29;20203;-81
2022/12/03 09:38:47;;;;;;;22.33;20.33;;;4.30;99.90;;;;;;4825862;29;20703;-81
2022/12/03 09:41:14;;;;;;;22.17;19.93;;;4.30;99.90;;;;;;4826859;29;20227;-80
2022/12/03 09:43:42;;;;;;;22.67;20.43;;;4.40;99.90;;;;;;4828577;29;20203;-79
2022/12/03 09:46:09;;;;;;;22.20;19.90;;;4.40;99.90;;;;;;4838004;29;20629;-81
2022/12/03 09:48:36;;;;;;;20.67;18.77;;;4.40;99.90;;;;;;4836469;29;20652;-81
2022/12/03 09:51:04;;;;;;;22.77;20.53;;;4.40;99.90;;;;;;4836047;29;20228;-80
2022/12/03 09:53:32;;;;;;;22.23;19.93;;;4.30;99.90;;;;;;4837936;29;20202;-81
2022/12/03 09:56:00;;;;;;;21.13;19.03;;;4.20;99.90;;;;;;4837985;29;20222;-81
2022/12/03 09:58:28;;;;;;;23.20;21.00;;;4.10;99.90;;;;;;4838263;29;20326;-82
2022/12/03 10:01:00;;;;;;;23.03;20.63;;;4.00;99.90;;;;;;4836366;29;20235;-81
2022/12/03 10:03:30;;;;;;;23.20;20.97;;;3.90;99.90;;;;;;4844102;29;20210;-82
2022/12/03 10:05:57;;;;;;;23.57;21.10;;;3.90;99.90;;;;;;4838011;29;20687;-82
2022/12/03 10:08:32;;;;;;;23.13;20.93;;;4.00;99.90;;;;;;4840521;29;20210;-81
2022/12/03 10:10:59;;;;;;;21.20;19.17;;;4.00;99.90;;;;;;4838099;29;20238;-81
2022/12/03 10:13:29;;;;;;;22.90;20.83;;;4.10;99.90;;;;;;4842472;29;20214;-78
2022/12/03 10:15:59;;;;;;;21.93;19.93;;;4.10;99.90;;;;;;4848732;29;20203;-77
2022/12/03 10:18:28;;;;;;;22.63;20.50;;;4.10;99.90;;;;;;4856267;29;20199;-76
2022/12/03 10:20:56;;;;;;;20.53;18.73;;;4.20;99.90;;;;;;4853374;29;20227;-82
2022/12/03 10:23:25;;;;;;;21.97;19.97;;;4.30;99.90;;;;;;4850754;29;20198;-82
2022/12/03 10:25:54;;;;;;;21.17;19.27;;;4.30;99.90;;;;;;4854858;29;20206;-81
2022/12/03 10:28:30;;;;;;;22.70;20.60;;;4.30;99.90;;;;;;4852004;29;20613;-80
2022/12/03 10:31:00;;;;;;;22.00;20.00;;;4.30;99.90;;;;;;4855497;29;20226;-81
2022/12/03 10:33:35;;;;;;;22.30;20.33;;;4.20;99.90;;;;;;4852152;29;20577;-81
2022/12/03 10:36:22;;;;;;;21.93;20.03;;;4.30;99.90;;;;;;4857331;29;20581;-81
2022/12/03 10:39:08;;;;;;;22.23;20.20;;;4.30;99.90;;;;;;4851201;29;20198;-82
2022/12/03 10:41:36;;;;;;;23.90;21.73;;;4.30;99.90;;;;;;4842603;29;20462;-81
2022/12/03 10:44:17;;;;;;;22.50;20.40;;;4.30;99.90;;;;;;4843940;29;20667;-82
2022/12/03 10:47:03;;;;;;;22.07;19.77;;;4.30;99.90;;;;;;4840163;29;20210;-82
2022/12/03 10:49:31;;;;;;;23.02;20.83;;;4.30;99.90;;;;;;4835296;29;20551;-82
2022/12/03 10:51:58;;;;;;;21.93;19.90;;;4.30;99.90;;;;;;4840097;29;20683;-81
2022/12/03 10:54:27;;;;;;;22.97;20.57;;;4.30;99.90;;;;;;4835558;29;20206;-81
2022/12/03 10:56:54;;;;;;;23.07;20.83;;;4.30;99.90;;;;;;4839348;29;20214;-82
2022/12/03 10:59:22;;;;;;;22.85;20.60;;;4.30;99.90;;;;;;4844105;29;20472;-81
2022/12/03 11:01:51;;;;;;;24.13;21.92;;;4.30;99.90;;;;;;4842324;29;20482;-79
2022/12/03 11:04:21;;;;;;;21.30;19.40;;;4.30;99.90;;;;;;4843450;29;20659;-83
2022/12/03 11:06:49;;;;;;;21.33;19.33;;;4.30;99.90;;;;;;4840460;29;20664;-81
2022/12/03 11:09:20;;;;;;;21.93;19.70;;;4.30;99.90;;;;;;4841717;29;20207;-82
2022/12/03 11:11:48;;;;;;;21.13;19.03;;;4.30;99.90;;;;;;4834812;29;20915;-82
2022/12/03 11:14:50;;;;;;;21.90;19.70;;;4.20;99.90;;;;;;4839060;29;20199;-82
2022/12/03 11:17:47;;;;;;;20.23;18.33;;;4.20;99.90;;;;;;4835613;29;20301;-81
2022/12/03 11:20:47;;;;;;;22.50;20.13;;;4.20;99.90;;;;;;4838213;29;20215;-82
2022/12/03 11:23:14;;;;;;;21.13;18.80;;;4.20;99.90;;;;;;4839327;29;20225;-81
2022/12/03 11:25:50;;;;;;;19.73;17.83;;;4.20;99.90;;;;;;4836506;29;20206;-81
2022/12/03 11:28:52;;;;;;;21.00;18.97;;;4.30;99.90;;;;;;4830830;29;20218;-82
2022/12/03 11:31:41;;;;;;;19.87;17.97;;;4.20;99.90;;;;;;4839640;29;20258;-81
2022/12/03 11:34:48;;;;;;;19.80;18.10;;;4.30;99.90;;;;;;4837311;29;20224;-81
2022/12/03 11:37:27;;;;;;;20.53;18.33;;;4.20;99.90;;;;;;4841553;29;20214;-82
2022/12/03 11:40:28;;;;;;;20.80;18.80;;;4.20;99.90;;;;;;4839492;29;20250;-82
2022/12/03 11:42:55;;;;;;;20.17;18.27;;;4.10;99.90;;;;;;4835497;29;20306;-82
2022/12/03 11:45:30;;;;;;;19.93;18.13;;;4.10;99.90;;;;;;4837393;29;20218;-81
2022/12/03 11:48:10;;;;;;;21.60;19.40;;;4.10;99.90;;;;;;4840888;29;20305;-82
2022/12/03 11:50:38;;;;;;;20.67;18.57;;;4.20;99.90;;;;;;4838405;29;20218;-82
2022/12/03 11:53:16;;;;;;;20.90;18.90;;;4.20;99.90;;;;;;4835449;29;20221;-81
2022/12/03 11:55:47;;;;;;;20.37;18.47;;;4.20;99.90;;;;;;4840252;29;20242;-79
2022/12/03 11:58:18;;;;;;;20.00;18.00;;;4.20;99.90;;;;;;4840334;29;20218;-81
2022/12/03 12:01:00;;;;;;;20.90;18.83;;;4.30;99.90;;;;;;4841376;29;20746;-82
2022/12/03 12:03:28;;;;;;;20.50;18.60;;;4.20;99.90;;;;;;4856654;29;20214;-83
2022/12/03 12:06:05;;;;;;;19.90;18.13;;;4.20;99.90;;;;;;4841868;29;20644;-82
2022/12/03 12:08:34;;;;;;;18.73;17.17;;;4.30;99.90;;;;;;4838441;29;20194;-83
2022/12/03 12:11:02;;;;;;;20.83;18.83;;;4.30;99.90;;;;;;4835997;29;20235;-83
2022/12/03 12:13:54;;;;;;;19.87;18.07;;;4.30;99.90;;;;;;4841232;29;20676;-83
2022/12/03 12:16:44;;;;;;;20.17;18.03;;;4.20;99.90;;;;;;4837586;29;20259;-85
2022/12/03 12:19:38;;;;;;;20.03;18.27;;;4.20;99.90;;;;;;4838487;29;20214;-84
2022/12/03 12:22:30;;;;;;;19.83;17.93;;;4.20;99.90;;;;;;4838818;29;20279;-83
2022/12/03 12:24:59;;;;;;;19.80;17.90;;;4.30;99.90;;;;;;4833528;29;20218;-82
2022/12/03 12:27:32;;;;;;;18.80;17.20;;;4.20;99.90;;;;;;4855975;29;20252;-82
2022/12/03 12:30:01;;;;;;;18.37;16.80;;;4.20;99.90;;;;;;4834998;29;20301;-82
2022/12/03 12:32:30;;;;;;;18.70;16.90;;;4.20;99.90;;;;;;4830791;29;20576;-83
2022/12/03 12:35:00;;;;;;;18.97;17.13;;;4.10;99.90;;;;;;4835904;29;20290;-83
2022/12/03 12:37:33;;;;;;;18.97;17.23;;;4.20;99.90;;;;;;4838280;29;20675;-80
2022/12/03 12:40:06;;;;;;;18.87;17.10;;;4.30;99.90;;;;;;4848861;29;20205;-81
2022/12/03 12:42:35;;;;;;;18.93;17.13;;;4.30;99.90;;;;;;4855535;29;20226;-80
2022/12/03 12:45:13;;;;;;;19.73;17.93;;;4.10;99.90;;;;;;4846767;29;20558;-80
2022/12/03 12:47:46;;;;;;;19.50;17.63;;;4.10;99.90;;;;;;4846990;29;20207;-81
2022/12/03 12:50:14;;;;;;;19.50;17.60;;;4.10;99.90;;;;;;4848538;29;20222;-81
2022/12/03 12:52:49;;;;;;;18.03;16.33;;;4.10;99.90;;;;;;4847398;29;20230;-79
2022/12/03 12:55:18;;;;;;;18.57;16.97;;;4.20;99.90;;;;;;4849516;29;20281;-81
2022/12/03 12:57:45;;;;;;;18.27;16.50;;;4.30;99.90;;;;;;4850146;29;20209;-83
2022/12/03 13:00:18;;;;;;;18.37;16.60;;;4.30;99.90;;;;;;4842405;29;20202;-83
2022/12/03 13:02:49;;;;;;;18.73;16.93;;;4.30;99.90;;;;;;4842615;29;20290;-83
2022/12/03 13:05:17;;;;;;;18.50;16.70;;;4.30;99.90;;;;;;4844711;29;20214;-84
2022/12/03 13:07:49;;;;;;;18.57;16.87;;;4.20;99.90;;;;;;4850241;29;20555;-83
2022/12/03 13:10:36;;;;;;;19.57;17.77;;;4.20;99.90;;;;;;4841341;29;20223;-84
2022/12/03 13:13:14;;;;;;;19.77;17.90;;;4.10;99.90;;;;;;4855105;29;20203;-84
2022/12/03 13:15:46;;;;;;;19.30;17.47;;;4.10;99.90;;;;;;4841677;29;20233;-83
2022/12/03 13:18:25;;;;;;;18.27;16.57;;;4.10;99.90;;;;;;4839809;29;20252;-79
2022/12/03 13:20:53;;;;;;;20.50;18.40;;;4.10;99.90;;;;;;4844902;29;20290;-80
2022/12/03 13:23:28;;;;;;;20.30;18.30;;;4.10;99.90;;;;;;4844608;29;20218;-83
2022/12/03 13:26:00;;;;;;;20.70;18.80;;;4.10;99.90;;;;;;4833975;29;20195;-83
2022/12/03 13:28:29;;;;;;;19.87;18.13;;;4.10;99.90;;;;;;4853228;29;20210;-84
2022/12/03 13:31:16;;;;;;;20.97;19.00;;;4.00;99.90;;;;;;4844867;29;20226;-80
2022/12/03 13:33:43;;;;;;;21.67;19.50;;;3.90;99.90;;;;;;4840816;29;20242;-84
2022/12/03 13:36:14;;;;;;;19.60;17.83;;;3.80;99.90;;;;;;4849452;29;20213;-81
2022/12/03 13:38:42;;;;;;;21.03;19.07;;;3.90;99.90;;;;;;4849273;29;20224;-82
2022/12/03 13:42:37;;;;;;;21.13;19.03;;;3.90;99.90;;;;;;4846999;29;20735;-82
2022/12/03 13:44:12;;;;;;;22.73;20.33;;;3.80;99.90;;;;;;4844875;29;20205;-82
2022/12/03 13:46:39;;;;;;;22.93;20.63;;;3.70;99.90;;;;;;4846281;29;20238;-80
2022/12/03 13:49:13;;;;;;;21.07;19.13;;;3.80;99.90;;;;;;4853184;29;20263;-81
2022/12/03 13:51:41;;;;;;;21.70;19.50;;;3.80;99.90;;;;;;4853595;29;20229;-81
2022/12/03 13:54:12;;;;;;;21.30;19.30;;;3.80;99.90;;;;;;4860533;29;20209;-81
2022/12/03 13:56:41;;;;;;;20.57;18.60;;;3.80;99.90;;;;;;4854942;29;20614;-81
2022/12/03 13:59:08;;;;;;;21.53;19.33;;;3.90;99.90;;;;;;4853205;29;20206;-82
2022/12/03 14:01:34;;;;;;;21.83;19.63;;;3.80;99.90;;;;;;4854542;29;20269;-82
2022/12/03 14:04:02;;;;;;;23.30;20.17;;;3.90;99.90;;;;;;4854011;29;20686;-82
2022/12/03 14:06:28;;;;;;;22.00;19.90;;;3.80;99.90;;;;;;4849354;29;20668;-81
2022/12/03 14:09:10;;;;;;;21.60;19.50;;;3.80;99.90;;;;;;4815077;29;20221;-82
2022/12/03 14:14:23;;;;;;;21.60;19.53;;;3.70;99.90;;;;;;4847598;29;20412;-80
2022/12/03 14:16:50;;;;;;;20.67;18.67;;;3.60;99.90;;;;;;4845745;29;20672;-80
2022/12/03 14:19:16;;;;;;;20.67;18.63;;;3.60;99.90;;;;;;4857105;29;20212;-80
2022/12/03 14:21:43;;;;;;;20.07;18.17;;;3.60;99.90;;;;;;4857968;29;20221;-80
2022/12/03 14:24:10;;;;;;;18.93;17.13;;;3.60;99.90;;;;;;4856111;29;20237;-79
2022/12/03 14:26:37;;;;;;;19.60;17.90;;;3.60;99.90;;;;;;4855187;29;20202;-79
2022/12/03 14:29:12;;;;;;;20.00;17.90;;;3.50;99.90;;;;;;4853621;29;20202;-79
2022/12/03 14:31:40;;;;;;;20.20;18.20;;;3.50;99.90;;;;;;4854274;29;20241;-79
2022/12/03 14:34:07;;;;;;;19.83;17.87;;;3.50;99.90;;;;;;4853907;29;20206;-80
2022/12/03 14:36:34;;;;;;;20.60;18.50;;;3.50;99.90;;;;;;4856666;29;20202;-80
2022/12/03 14:39:01;;;;;;;19.53;17.67;;;3.60;99.90;;;;;;4854519;29;20203;-78
2022/12/03 14:44:22;;;;;;;19.33;17.47;;;3.50;99.90;;;;;;4799184;29;20293;-81
2022/12/03 14:46:50;;;;;;;19.83;18.03;;;3.40;99.90;;;;;;4858273;29;20198;-80
2022/12/03 14:49:17;;;;;;;19.83;17.83;;;3.30;99.90;;;;;;4851682;29;20275;-81
2022/12/03 14:51:44;;;;;;;19.40;17.43;;;3.40;99.90;;;;;;4853652;29;20280;-81
2022/12/03 14:54:11;;;;;;;20.83;18.80;;;3.40;99.90;;;;;;4851838;29;20210;-81
2022/12/03 14:56:38;;;;;;;20.67;18.57;;;3.40;99.90;;;;;;4853196;29;20206;-81
2022/12/03 14:59:05;;;;;;;19.90;17.93;;;3.30;99.90;;;;;;4852594;29;20206;-81
2022/12/03 15:01:32;;;;;;;19.80;17.90;;;3.30;99.90;;;;;;4852348;29;20214;-81
2022/12/03 15:04:00;;;;;;;20.37;18.27;;;3.30;99.90;;;;;;4855309;29;20301;-78
2022/12/03 15:06:27;;;;;;;18.07;16.43;;;3.20;99.90;;;;;;4859265;29;20202;-77
2022/12/03 15:08:54;;;;;;;19.00;17.20;;;3.20;99.90;;;;;;4859320;29;20201;-77
2022/12/03 15:11:21;;;;;;;18.93;17.13;;;3.20;99.90;;;;;;4858542;29;20225;-78
2022/12/03 15:13:48;;;;;;;18.83;17.23;;;3.20;99.90;;;;;;4859517;29;20671;-83
2022/12/03 15:16:15;;;;;;;17.93;16.33;;;3.30;99.90;;;;;;4857147;29;20205;-79
2022/12/03 15:18:42;;;;;;;18.97;17.17;;;3.30;99.90;;;;;;4858930;29;20202;-79
2022/12/03 15:21:10;;;;;;;18.77;17.07;;;3.40;99.90;;;;;;4857485;29;20226;-81
2022/12/03 15:23:37;;;;;;;18.47;16.77;;;3.30;99.90;;;;;;4858561;29;20258;-80
2022/12/03 15:26:04;;;;;;;18.60;16.90;;;3.40;99.90;;;;;;4856432;29;20206;-81
2022/12/03 15:28:31;;;;;;;19.17;17.43;;;3.30;99.90;;;;;;4856449;29;20263;-78
2022/12/03 15:30:58;;;;;;;19.33;17.53;;;3.30;99.90;;;;;;4845589;29;20238;-77
2022/12/03 15:33:25;;;;;;;19.00;17.30;;;3.20;99.90;;;;;;4850517;29;20259;-81
2022/12/03 15:35:52;;;;;;;18.70;17.00;;;3.10;99.90;;;;;;4862875;29;20233;-80
2022/12/03 15:38:20;;;;;;;20.27;18.27;;;3.10;99.90;;;;;;4851469;29;20206;-80
2022/12/03 15:40:47;;;;;;;19.00;17.30;;;3.10;99.90;;;;;;4857314;29;20210;-81
2022/12/03 15:43:14;;;;;;;19.57;17.87;;;3.10;99.90;;;;;;4857069;29;20578;-81
2022/12/03 15:45:44;;;;;;;19.23;17.53;;;3.00;99.90;;;;;;4854735;29;20231;-81
2022/12/03 15:48:12;;;;;;;19.47;17.77;;;3.00;99.90;;;;;;4851852;29;20202;-81
2022/12/03 15:50:44;;;;;;;19.13;17.33;;;3.00;99.90;;;;;;4842057;29;20230;-80
2022/12/03 15:53:11;;;;;;;20.47;18.47;;;3.10;99.90;;;;;;4838902;29;20238;-80
2022/12/03 15:55:39;;;;;;;20.67;18.63;;;3.00;99.90;;;;;;4839259;29;20298;-81
2022/12/03 15:58:06;;;;;;;19.63;17.90;;;3.10;99.90;;;;;;4841764;29;20214;-83
2022/12/03 16:00:32;;;;;;;20.73;18.87;;;3.00;99.90;;;;;;4842712;29;20224;-82
2022/12/03 16:02:59;;;;;;;19.33;17.77;;;3.00;99.90;;;;;;4840523;29;20211;-81
2022/12/03 16:05:26;;;;;;;19.30;17.63;;;3.00;99.90;;;;;;4842517;29;20202;-82
2022/12/03 16:07:53;;;;;;;19.33;17.47;;;2.90;99.90;;;;;;4841531;29;20231;-82
2022/12/03 16:10:20;;;;;;;18.93;17.13;;;2.80;99.90;;;;;;4841555;29;20210;-82
2022/12/03 16:12:49;;;;;;;19.27;17.53;;;2.80;99.90;;;;;;4840428;29;20238;-82